createdAt,value
2023-05-06T00:00:52.711Z,4.20
2023-05-06T00:05:57.121Z,4.10
2023-05-06T00:11:01.865Z,4.10
2023-05-06T00:16:06.309Z,4.00
2023-05-06T00:21:12.744Z,4.00
2023-05-06T00:26:16.764Z,3.90
2023-05-06T00:31:21.811Z,3.90
2023-05-06T00:36:26.041Z,3.90
2023-05-06T00:41:34.230Z,3.82
2023-05-06T00:46:40.439Z,3.80
2023-05-06T00:51:44.823Z,3.80
2023-05-06T00:56:48.802Z,3.80
2023-05-06T01:01:54.261Z,3.80
2023-05-06T01:07:13.152Z,3.80
2023-05-06T01:12:29.872Z,3.80
2023-05-06T01:17:43.101Z,3.70
2023-05-06T01:22:51.269Z,3.70
2023-05-06T01:27:55.795Z,3.60
2023-05-06T01:33:03.583Z,3.60
2023-05-06T01:38:35.175Z,3.50
2023-05-06T01:43:43.847Z,3.40
2023-05-06T01:48:54.329Z,3.30
2023-05-06T01:53:58.139Z,3.20
2023-05-06T01:59:04.207Z,3.10
2023-05-06T02:04:08.269Z,3.00
2023-05-06T02:09:13.001Z,3.00
2023-05-06T02:14:17.134Z,2.90
2023-05-06T02:19:21.176Z,2.80
2023-05-06T02:24:27.247Z,2.80
2023-05-06T02:29:30.863Z,2.70
2023-05-06T02:34:36.115Z,2.60
2023-05-06T02:39:40.972Z,2.50
2023-05-06T02:44:46.152Z,2.40
2023-05-06T02:49:50.961Z,2.40
2023-05-06T02:54:55.106Z,2.32
2023-05-06T03:00:00.866Z,2.30
2023-05-06T03:05:05.934Z,2.30
2023-05-06T03:10:10.373Z,2.40
2023-05-06T03:15:14.082Z,2.40
2023-05-06T03:20:17.926Z,2.50
2023-05-06T03:25:22.980Z,2.60
2023-05-06T03:30:27.003Z,2.70
2023-05-06T03:35:33.195Z,2.90
2023-05-06T03:40:38.337Z,3.00
2023-05-06T03:45:43.223Z,3.20
2023-05-06T03:50:53.056Z,3.30
2023-05-06T03:55:57.152Z,3.50
2023-05-06T04:01:01.227Z,3.62
2023-05-06T04:06:06.803Z,3.80
2023-05-06T04:11:11.449Z,4.00
2023-05-06T04:16:17.146Z,4.20
2023-05-06T04:21:21.033Z,4.30
2023-05-06T04:26:25.697Z,4.40
2023-05-06T04:31:31.134Z,4.50
2023-05-06T04:36:35.894Z,4.60
2023-05-06T04:41:41.073Z,4.78
2023-05-06T04:46:45.134Z,4.90
2023-05-06T04:51:48.842Z,5.02
2023-05-06T04:56:54.472Z,5.14
2023-05-06T05:01:59.160Z,5.20
2023-05-06T05:07:04.186Z,5.30
2023-05-06T05:12:08.239Z,5.50
2023-05-06T05:17:12.050Z,5.60
2023-05-06T05:22:17.096Z,5.80
2023-05-06T05:27:21.125Z,6.10
2023-05-06T05:32:25.879Z,6.30
2023-05-06T05:37:30.206Z,6.50
2023-05-06T05:42:35.160Z,6.70
2023-05-06T05:47:40.129Z,6.90
2023-05-06T05:52:47.754Z,7.00
2023-05-06T05:57:52.977Z,7.10
2023-05-06T06:02:58.746Z,7.40
2023-05-06T06:08:04.134Z,7.60
2023-05-06T06:13:09.268Z,7.88
2023-05-06T06:18:13.307Z,8.20
2023-05-06T06:23:19.082Z,8.58
2023-05-06T06:28:24.948Z,8.86
2023-05-06T06:33:30.654Z,9.18
2023-05-06T06:38:37.697Z,9.40
2023-05-06T06:43:42.086Z,9.70
2023-05-06T06:48:47.451Z,10.00
2023-05-06T06:53:52.618Z,10.22
2023-05-06T06:58:57.304Z,10.38
2023-05-06T07:05:23.299Z,10.50
2023-05-06T07:11:12.384Z,10.80
2023-05-06T07:23:37.083Z,11.70
2023-05-06T07:35:30.606Z,12.10
2023-05-06T07:48:02.129Z,12.40
2023-05-06T07:53:05.868Z,12.50
2023-05-06T07:58:09.657Z,12.70
2023-05-06T08:03:24.237Z,12.80
2023-05-06T08:08:30.723Z,12.90
2023-05-06T08:13:55.236Z,13.00
2023-05-06T08:19:51.399Z,13.20
2023-05-06T08:25:39.156Z,13.40
2023-05-06T08:30:43.080Z,13.48
2023-05-06T08:37:09.375Z,13.50
2023-05-06T08:42:13.257Z,13.70
2023-05-06T08:47:42.370Z,13.72
2023-05-06T08:52:48.083Z,13.74
2023-05-06T08:58:17.589Z,13.76
2023-05-06T09:03:54.429Z,13.70
2023-05-06T09:09:02.006Z,13.70
2023-05-06T09:14:43.862Z,13.72
2023-05-06T09:20:13.065Z,13.82
2023-05-06T09:25:17.888Z,13.84
2023-05-06T09:30:48.182Z,13.90
2023-05-06T09:35:52.373Z,13.90
2023-05-06T09:41:23.119Z,14.02
2023-05-06T09:46:28.444Z,14.20
2023-05-06T09:51:33.542Z,14.30
2023-05-06T09:56:41.274Z,14.30
2023-05-06T10:03:03.147Z,14.30
2023-05-06T10:08:09.817Z,14.40
2023-05-06T10:13:27.200Z,14.64
2023-05-06T10:19:23.145Z,14.80
2023-05-06T10:24:46.914Z,15.00
2023-05-06T10:30:43.276Z,15.08
2023-05-06T10:36:10.972Z,15.20
2023-05-06T10:41:40.457Z,15.30
2023-05-06T10:47:09.791Z,15.32
2023-05-06T10:52:17.330Z,15.50
2023-05-06T10:57:43.242Z,15.50
2023-05-06T11:03:42.604Z,15.50
2023-05-06T11:08:59.138Z,15.42
2023-05-06T11:14:30.421Z,15.50
2023-05-06T11:20:22.127Z,15.40
2023-05-06T11:25:45.408Z,15.30
2023-05-06T11:32:11.512Z,15.40
2023-05-06T11:44:51.059Z,15.50
2023-05-06T11:50:49.392Z,15.52
2023-05-06T11:55:54.845Z,15.40
2023-05-06T12:01:24.338Z,15.42
2023-05-06T12:06:38.161Z,15.40
2023-05-06T12:11:45.060Z,15.40
2023-05-06T12:16:49.189Z,15.38
2023-05-06T12:21:52.998Z,15.20
2023-05-06T12:26:56.822Z,15.10
2023-05-06T12:32:58.460Z,14.90
2023-05-06T12:38:17.231Z,14.90
2023-05-06T12:43:34.727Z,14.80
2023-05-06T12:48:39.789Z,14.60
2023-05-06T12:55:05.843Z,14.60
2023-05-06T13:00:11.645Z,14.50
2023-05-06T13:05:16.476Z,14.40
2023-05-06T13:10:21.009Z,14.30
2023-05-06T13:15:27.315Z,14.40
2023-05-06T13:20:34.689Z,14.40
2023-05-06T13:25:55.967Z,14.40
2023-05-06T13:31:06.877Z,14.50
2023-05-06T13:36:10.976Z,14.48
2023-05-06T13:41:18.048Z,14.40
2023-05-06T13:46:24.879Z,14.30
2023-05-06T13:51:30.958Z,14.20
2023-05-06T13:56:38.523Z,14.10
2023-05-06T14:01:43.278Z,14.10
2023-05-06T14:06:46.979Z,14.10
2023-05-06T14:11:51.966Z,14.10
2023-05-06T14:16:56.309Z,14.10
2023-05-06T14:22:01.256Z,14.00
2023-05-06T14:27:06.062Z,13.90
2023-05-06T14:32:10.351Z,13.90
2023-05-06T14:37:39.258Z,13.90
2023-05-06T14:43:32.558Z,13.90
2023-05-06T14:48:36.274Z,13.90
2023-05-06T14:55:05.815Z,14.00
2023-05-06T15:00:10.708Z,14.00
2023-05-06T15:06:04.312Z,13.90
2023-05-06T15:19:37.129Z,13.80
2023-05-06T15:29:07.612Z,13.62
2023-05-06T16:06:50.993Z,13.20
2023-05-06T16:11:55.224Z,13.10
2023-05-06T16:17:26.220Z,13.00
2023-05-06T16:23:46.924Z,13.00
2023-05-06T16:29:40.946Z,13.00
2023-05-06T16:36:20.465Z,13.00
2023-05-06T16:48:54.265Z,12.90
2023-05-06T16:54:51.689Z,12.72
2023-05-06T17:07:25.026Z,12.60
2023-05-06T17:12:28.958Z,12.60
2023-05-06T17:17:35.035Z,12.50
2023-05-06T17:22:41.414Z,12.40
2023-05-06T17:27:49.502Z,12.30
2023-05-06T17:32:55.722Z,12.30
2023-05-06T17:38:00.485Z,12.20
2023-05-06T17:43:07.695Z,12.10
2023-05-06T17:48:12.517Z,12.04
2023-05-06T17:53:17.576Z,12.00
2023-05-06T17:58:21.958Z,11.90
2023-05-06T18:03:26.052Z,11.80
2023-05-06T18:08:31.745Z,11.70
2023-05-06T18:13:37.188Z,11.60
2023-05-06T18:18:41.220Z,11.50
2023-05-06T18:23:44.837Z,11.42
2023-05-06T18:28:49.714Z,11.38
2023-05-06T18:33:54.136Z,11.28
2023-05-06T18:38:58.582Z,11.20
2023-05-06T18:44:04.930Z,11.10
2023-05-06T18:49:09.711Z,11.02
2023-05-06T18:54:48.966Z,11.00
2023-05-06T19:00:44.769Z,10.90
2023-05-06T19:12:38.872Z,10.80
2023-05-06T19:32:59.053Z,10.54
2023-05-06T19:45:17.473Z,10.30
2023-05-06T19:50:23.604Z,10.20
2023-05-06T19:55:28.451Z,10.10
2023-05-06T20:00:33.394Z,10.00
2023-05-06T20:05:37.367Z,9.90
2023-05-06T20:10:41.264Z,9.80
2023-05-06T20:15:45.643Z,9.80
2023-05-06T20:20:49.614Z,9.70
2023-05-06T20:25:54.262Z,9.60
2023-05-06T20:31:00.046Z,9.60
2023-05-06T20:36:06.030Z,9.50
2023-05-06T20:41:10.171Z,9.40
2023-05-06T20:46:14.223Z,9.40
2023-05-06T20:51:20.353Z,9.30
2023-05-06T20:56:25.536Z,9.30
2023-05-06T21:01:29.785Z,9.20
2023-05-06T21:06:33.793Z,9.20
2023-05-06T21:11:38.623Z,9.10
2023-05-06T21:16:43.375Z,9.08
2023-05-06T21:21:47.314Z,9.00
2023-05-06T21:26:52.045Z,9.00
2023-05-06T21:31:55.885Z,8.90
2023-05-06T21:37:00.213Z,8.80
2023-05-06T21:42:04.563Z,8.70
2023-05-06T21:47:10.263Z,8.60
2023-05-06T21:52:14.057Z,8.50
2023-05-06T21:57:19.204Z,8.40
2023-05-06T22:02:23.196Z,8.30
2023-05-06T22:07:26.882Z,8.20
2023-05-06T22:17:41.510Z,8.10
2023-05-06T22:22:45.202Z,8.10
2023-05-06T22:27:48.984Z,8.00
2023-05-06T22:32:52.803Z,7.90
2023-05-06T22:37:57.303Z,7.90
2023-05-06T22:43:01.216Z,7.80
2023-05-06T22:48:06.642Z,7.80
2023-05-06T22:53:14.988Z,7.70
2023-05-06T22:58:21.198Z,7.60
2023-05-06T23:03:25.337Z,7.50
2023-05-06T23:08:29.359Z,7.40
2023-05-06T23:13:36.382Z,7.30
2023-05-06T23:18:41.551Z,7.30
2023-05-06T23:23:45.233Z,7.14
2023-05-06T23:28:49.273Z,7.08
2023-05-06T23:33:53.211Z,7.00
2023-05-06T23:38:57.237Z,6.90
2023-05-06T23:44:01.197Z,6.80
2023-05-06T23:49:05.907Z,6.68
2023-05-06T23:54:09.845Z,6.52
2023-05-06T23:59:14.305Z,6.50
